Time;durP1;ratioP1;P1;durP2;ratioP2;P2;SDS_P1;SDS_P2;PMS_P1;PMS_P2;Temp;Humidity;BMP_temperature;BMP_pressure;BME280_temperature;BME280_humidity;BME280_pressure;Samples;Min_cycle;Max_cycle;Signal;HPM_P1;HPM_P2
2024/03/03 00:02:18;;;;;;;35.38;16.15;;;;;;;;;;5093620;28;20049;-64
2024/03/03 00:04:43;;;;;;;31.65;15.35;;;;;;;;;;5096512;28;20023;-64
2024/03/03 00:07:08;;;;;;;30.08;15.15;;;;;;;;;;5103429;28;20107;-64
2024/03/03 00:09:34;;;;;;;32.47;15.60;;;;;;;;;;5109018;28;20024;-64
2024/03/03 00:11:59;;;;;;;29.38;14.57;;;;;;;;;;5112410;28;20023;-65
2024/03/03 00:14:24;;;;;;;28.13;15.77;;;;;;;;;;5111689;28;20422;-65
2024/03/03 00:16:50;;;;;;;32.75;15.15;;;;;;;;;;5111576;28;20456;-64
2024/03/03 00:19:15;;;;;;;33.65;15.35;;;;;;;;;;5108356;28;20032;-64
2024/03/03 00:21:40;;;;;;;29.20;15.07;;;;;;;;;;5095793;28;20028;-62
2024/03/03 00:24:06;;;;;;;32.38;15.77;;;;;;;;;;5095857;28;20111;-63
2024/03/03 00:26:32;;;;;;;30.95;14.38;;;;;;;;;;5095868;28;20020;-64
2024/03/03 00:28:58;;;;;;;30.60;15.27;;;;;;;;;;5095191;28;20016;-64
2024/03/03 00:31:23;;;;;;;30.80;15.32;;;;;;;;;;5095614;28;20035;-65
2024/03/03 00:33:49;;;;;;;31.60;15.23;;;;;;;;;;5096894;28;20012;-64
2024/03/03 00:36:14;;;;;;;32.75;14.90;;;;;;;;;;5115769;28;20038;-64
2024/03/03 00:38:39;;;;;;;30.73;15.50;;;;;;;;;;5116133;28;20112;-64
2024/03/03 00:41:04;;;;;;;33.67;15.45;;;;;;;;;;5116146;28;20024;-63
2024/03/03 00:43:33;;;;;;;33.63;15.48;;;;;;;;;;5115350;28;20115;-65
2024/03/03 00:45:58;;;;;;;32.40;14.82;;;;;;;;;;5115499;28;20048;-63
2024/03/03 00:48:23;;;;;;;33.38;15.50;;;;;;;;;;5114147;27;20086;-64
2024/03/03 00:50:48;;;;;;;34.40;15.07;;;;;;;;;;5095968;28;20423;-63
2024/03/03 00:53:14;;;;;;;32.25;15.48;;;;;;;;;;5095366;28;20086;-64
2024/03/03 00:55:46;;;;;;;28.48;15.02;;;;;;;;;;5111307;28;20039;-64
2024/03/03 00:58:11;;;;;;;40.00;15.23;;;;;;;;;;5101504;28;20081;-63
2024/03/03 01:00:38;;;;;;;42.60;15.13;;;;;;;;;;5095057;28;20024;-63
2024/03/03 01:03:03;;;;;;;31.50;15.25;;;;;;;;;;5095626;28;20054;-63
2024/03/03 01:05:29;;;;;;;29.85;14.75;;;;;;;;;;5112141;28;20051;-64
2024/03/03 01:07:54;;;;;;;35.80;15.07;;;;;;;;;;5114239;28;20019;-62
2024/03/03 01:10:20;;;;;;;32.70;14.10;;;;;;;;;;5114823;28;20020;-64
2024/03/03 01:12:46;;;;;;;35.63;14.88;;;;;;;;;;5115012;28;20079;-64
2024/03/03 01:15:11;;;;;;;29.63;15.10;;;;;;;;;;5115072;28;20035;-64
2024/03/03 01:17:36;;;;;;;35.30;14.77;;;;;;;;;;5104333;28;20020;-65
2024/03/03 01:20:05;;;;;;;27.27;15.07;;;;;;;;;;5094800;28;20036;-64
2024/03/03 01:22:31;;;;;;;32.65;15.20;;;;;;;;;;5093603;28;20810;-65
2024/03/03 01:24:56;;;;;;;28.40;14.88;;;;;;;;;;5094175;28;20020;-65
2024/03/03 01:27:21;;;;;;;34.33;14.07;;;;;;;;;;5094684;28;20028;-64
2024/03/03 01:29:47;;;;;;;32.47;14.32;;;;;;;;;;5094605;28;20073;-64
2024/03/03 01:32:12;;;;;;;31.92;13.57;;;;;;;;;;5099978;28;20020;-64
2024/03/03 01:34:37;;;;;;;32.65;14.43;;;;;;;;;;5114670;28;20374;-63
2024/03/03 01:37:03;;;;;;;32.63;14.05;;;;;;;;;;5110270;28;20016;-64
2024/03/03 01:39:28;;;;;;;32.53;14.35;;;;;;;;;;5094166;28;20043;-64
2024/03/03 01:41:54;;;;;;;28.58;14.35;;;;;;;;;;5093937;28;20452;-64
2024/03/03 01:44:19;;;;;;;31.60;13.73;;;;;;;;;;5094232;28;20408;-63
2024/03/03 01:46:44;;;;;;;23.60;12.77;;;;;;;;;;5099174;28;20335;-65
2024/03/03 01:49:11;;;;;;;27.95;12.35;;;;;;;;;;5114374;28;20047;-63
2024/03/03 01:51:38;;;;;;;30.30;13.15;;;;;;;;;;5114095;28;20048;-63
2024/03/03 01:54:04;;;;;;;28.75;13.02;;;;;;;;;;5114696;28;20438;-63
2024/03/03 01:56:30;;;;;;;26.08;12.88;;;;;;;;;;5114448;28;20066;-64
2024/03/03 01:58:56;;;;;;;34.83;13.45;;;;;;;;;;5114022;28;20391;-63
2024/03/03 02:01:23;;;;;;;26.85;12.55;;;;;;;;;;5109286;28;20042;-64
2024/03/03 02:03:49;;;;;;;36.08;14.65;;;;;;;;;;5097226;28;20020;-63
2024/03/03 02:06:15;;;;;;;32.13;12.90;;;;;;;;;;5101261;28;20512;-64
2024/03/03 02:08:40;;;;;;;33.97;14.10;;;;;;;;;;5093645;28;20070;-65
2024/03/03 02:11:06;;;;;;;33.03;13.70;;;;;;;;;;5093309;28;20059;-64
2024/03/03 02:13:31;;;;;;;33.17;14.07;;;;;;;;;;5094093;28;20103;-64
2024/03/03 02:15:56;;;;;;;27.35;14.68;;;;;;;;;;5096136;28;20084;-64
2024/03/03 02:18:22;;;;;;;29.02;13.48;;;;;;;;;;5113705;28;20027;-64
2024/03/03 02:20:47;;;;;;;32.08;14.65;;;;;;;;;;5111899;28;20454;-64
2024/03/03 02:23:12;;;;;;;28.35;13.65;;;;;;;;;;5096134;28;20031;-63
2024/03/03 02:25:39;;;;;;;31.10;13.82;;;;;;;;;;5093711;28;20020;-63
2024/03/03 02:28:04;;;;;;;25.52;12.68;;;;;;;;;;5092957;28;20336;-64
2024/03/03 02:30:29;;;;;;;28.55;14.18;;;;;;;;;;5094005;28;20028;-64
2024/03/03 02:32:55;;;;;;;38.28;13.32;;;;;;;;;;5113580;28;20026;-64
2024/03/03 02:35:20;;;;;;;27.23;13.35;;;;;;;;;;5112724;28;20047;-64
2024/03/03 02:37:48;;;;;;;30.92;13.10;;;;;;;;;;5113740;28;20031;-63
2024/03/03 02:40:14;;;;;;;30.75;13.18;;;;;;;;;;5113478;28;20495;-64
2024/03/03 02:42:39;;;;;;;30.27;13.55;;;;;;;;;;5094707;28;20012;-64
2024/03/03 02:45:05;;;;;;;31.27;13.75;;;;;;;;;;5092945;28;20076;-64
2024/03/03 02:47:30;;;;;;;28.95;13.73;;;;;;;;;;5092464;28;20028;-64
2024/03/03 02:49:55;;;;;;;33.95;14.68;;;;;;;;;;5092522;28;20024;-63
2024/03/03 02:52:21;;;;;;;27.45;13.88;;;;;;;;;;5091162;28;20075;-64
2024/03/03 02:54:46;;;;;;;31.08;13.93;;;;;;;;;;5092498;28;20044;-64
2024/03/03 02:57:12;;;;;;;29.17;13.55;;;;;;;;;;5092996;28;20383;-65
2024/03/03 02:59:37;;;;;;;29.45;14.02;;;;;;;;;;5094122;28;20104;-65
2024/03/03 03:02:02;;;;;;;32.03;13.60;;;;;;;;;;5112279;28;20106;-66
2024/03/03 03:04:28;;;;;;;22.95;12.82;;;;;;;;;;5112561;28;20035;-65
2024/03/03 03:06:53;;;;;;;29.48;11.32;;;;;;;;;;5111176;28;20012;-64
2024/03/03 03:09:19;;;;;;;27.50;13.52;;;;;;;;;;5112869;28;20024;-65
2024/03/03 03:11:44;;;;;;;28.70;13.23;;;;;;;;;;5113068;28;20164;-63
2024/03/03 03:14:09;;;;;;;38.78;13.65;;;;;;;;;;5112357;28;20028;-64
2024/03/03 03:16:38;;;;;;;24.27;12.30;;;;;;;;;;5095365;28;20434;-64
2024/03/03 03:19:04;;;;;;;31.65;13.30;;;;;;;;;;5092217;28;20027;-65
2024/03/03 03:21:29;;;;;;;30.30;12.15;;;;;;;;;;5105750;28;20039;-64
2024/03/03 03:23:55;;;;;;;34.40;13.18;;;;;;;;;;5112954;28;20039;-65
2024/03/03 03:26:20;;;;;;;31.70;12.88;;;;;;;;;;5112688;28;20024;-64
2024/03/03 03:28:45;;;;;;;30.13;13.27;;;;;;;;;;5112686;28;20103;-64
2024/03/03 03:31:11;;;;;;;31.08;13.80;;;;;;;;;;5111118;28;20088;-64
2024/03/03 03:33:36;;;;;;;28.27;13.85;;;;;;;;;;5112746;28;20020;-64
2024/03/03 03:36:06;;;;;;;30.38;13.55;;;;;;;;;;5112388;28;20036;-63
2024/03/03 03:38:32;;;;;;;27.58;13.05;;;;;;;;;;5112477;28;20046;-64
2024/03/03 03:40:57;;;;;;;32.03;14.40;;;;;;;;;;5102651;28;20442;-66
2024/03/03 03:43:22;;;;;;;27.50;12.82;;;;;;;;;;5092333;28;20032;-65
2024/03/03 03:45:47;;;;;;;31.02;13.10;;;;;;;;;;5106183;28;20057;-64
2024/03/03 03:48:13;;;;;;;29.30;12.80;;;;;;;;;;5112709;28;20038;-64
2024/03/03 03:50:38;;;;;;;29.25;13.23;;;;;;;;;;5112901;28;21027;-64
2024/03/03 03:53:03;;;;;;;25.83;11.70;;;;;;;;;;5112382;28;20043;-65
2024/03/03 03:55:29;;;;;;;26.48;12.05;;;;;;;;;;5114692;28;20031;-63
2024/03/03 03:57:54;;;;;;;32.15;12.98;;;;;;;;;;5116697;28;20016;-64
2024/03/03 04:00:19;;;;;;;27.60;12.82;;;;;;;;;;5102866;28;20023;-63
2024/03/03 04:02:46;;;;;;;29.42;12.88;;;;;;;;;;5096164;28;20020;-63
2024/03/03 04:05:11;;;;;;;29.73;13.23;;;;;;;;;;5095559;28;20028;-62
2024/03/03 04:07:37;;;;;;;31.55;13.07;;;;;;;;;;5096056;28;20115;-63
2024/03/03 04:10:03;;;;;;;26.98;12.43;;;;;;;;;;5096135;28;20028;-62
2024/03/03 04:12:28;;;;;;;28.88;12.98;;;;;;;;;;5095929;28;20418;-62
2024/03/03 04:14:53;;;;;;;27.65;13.02;;;;;;;;;;5106271;28;20028;-62
2024/03/03 04:17:19;;;;;;;29.15;12.85;;;;;;;;;;5100636;28;20028;-63
2024/03/03 04:19:44;;;;;;;27.77;12.55;;;;;;;;;;5103802;28;20095;-65
2024/03/03 04:22:10;;;;;;;33.22;12.45;;;;;;;;;;5116114;28;20107;-63
2024/03/03 04:24:35;;;;;;;28.50;12.75;;;;;;;;;;5115825;28;20020;-65
2024/03/03 04:27:01;;;;;;;27.88;13.23;;;;;;;;;;5115855;28;20078;-64
2024/03/03 04:29:26;;;;;;;29.73;13.38;;;;;;;;;;5105971;28;20016;-64
2024/03/03 04:31:53;;;;;;;27.98;11.70;;;;;;;;;;5095620;28;20032;-63
2024/03/03 04:34:18;;;;;;;21.25;11.95;;;;;;;;;;5095695;28;20056;-63
2024/03/03 04:36:46;;;;;;;22.63;12.77;;;;;;;;;;5096279;28;20059;-63
2024/03/03 04:39:12;;;;;;;28.42;12.82;;;;;;;;;;5097132;28;20854;-65
2024/03/03 04:41:37;;;;;;;26.55;12.82;;;;;;;;;;5112475;28;20027;-64
2024/03/03 04:44:03;;;;;;;30.30;12.77;;;;;;;;;;5105785;28;20020;-64
2024/03/03 04:46:28;;;;;;;28.17;12.18;;;;;;;;;;5095102;28;20070;-64
2024/03/03 04:48:53;;;;;;;22.65;11.25;;;;;;;;;;5094814;28;20048;-63
2024/03/03 04:51:18;;;;;;;25.75;12.23;;;;;;;;;;5095437;28;20256;-64
2024/03/03 04:53:44;;;;;;;21.70;11.25;;;;;;;;;;5093594;28;20062;-63
2024/03/03 04:56:10;;;;;;;30.45;12.48;;;;;;;;;;5094909;28;20140;-63
2024/03/03 04:58:35;;;;;;;24.58;12.43;;;;;;;;;;5111870;28;20047;-64
2024/03/03 05:01:00;;;;;;;24.30;12.88;;;;;;;;;;5115175;28;20024;-65
2024/03/03 05:03:26;;;;;;;34.33;12.93;;;;;;;;;;5115110;28;20019;-64
2024/03/03 05:05:51;;;;;;;24.38;12.13;;;;;;;;;;5114484;28;20028;-64
2024/03/03 05:08:16;;;;;;;20.85;11.57;;;;;;;;;;5114693;28;20035;-62
2024/03/03 05:10:41;;;;;;;23.00;10.70;;;;;;;;;;5115369;28;20022;-63
2024/03/03 05:13:07;;;;;;;27.35;11.68;;;;;;;;;;5098687;28;20024;-63
2024/03/03 05:15:32;;;;;;;28.15;10.85;;;;;;;;;;5094518;28;20430;-62
2024/03/03 05:17:58;;;;;;;18.02;10.77;;;;;;;;;;5104974;28;20041;-62
2024/03/03 05:20:23;;;;;;;23.48;11.10;;;;;;;;;;5115071;28;20089;-64
2024/03/03 05:22:49;;;;;;;20.92;10.90;;;;;;;;;;5114891;28;20034;-63
2024/03/03 05:25:14;;;;;;;27.52;10.88;;;;;;;;;;5113454;28;20066;-66
2024/03/03 05:27:39;;;;;;;18.77;10.80;;;;;;;;;;5099598;28;20024;-66
2024/03/03 05:30:05;;;;;;;23.50;10.57;;;;;;;;;;5094381;28;20020;-65
2024/03/03 05:32:30;;;;;;;21.52;9.95;;;;;;;;;;5094024;28;20115;-64
2024/03/03 05:34:56;;;;;;;20.45;9.60;;;;;;;;;;5094194;28;20461;-63
2024/03/03 05:37:22;;;;;;;25.92;10.75;;;;;;;;;;5100490;28;20024;-65
2024/03/03 05:39:47;;;;;;;23.90;10.07;;;;;;;;;;5113347;28;20027;-64
2024/03/03 05:42:12;;;;;;;24.75;10.80;;;;;;;;;;5100200;28;20032;-65
2024/03/03 05:44:38;;;;;;;27.15;11.13;;;;;;;;;;5094326;28;20020;-62
2024/03/03 05:47:03;;;;;;;18.27;10.65;;;;;;;;;;5093743;28;20206;-71
2024/03/03 05:49:29;;;;;;;18.92;9.85;;;;;;;;;;5092778;28;20085;-71
2024/03/03 05:51:55;;;;;;;24.98;10.95;;;;;;;;;;5093964;28;20043;-69
2024/03/03 05:54:21;;;;;;;23.25;10.57;;;;;;;;;;5094239;28;20036;-69
2024/03/03 05:56:46;;;;;;;19.75;11.05;;;;;;;;;;5104851;28;20032;-70
2024/03/03 05:59:14;;;;;;;18.65;10.38;;;;;;;;;;5114023;28;20038;-69
2024/03/03 06:01:41;;;;;;;23.70;10.80;;;;;;;;;;5113904;28;20023;-72
2024/03/03 06:04:06;;;;;;;21.80;10.90;;;;;;;;;;5114577;28;20023;-70
2024/03/03 06:06:31;;;;;;;21.47;10.47;;;;;;;;;;5113475;28;20024;-71
2024/03/03 06:08:57;;;;;;;20.70;10.63;;;;;;;;;;5114170;28;20240;-72
2024/03/03 06:11:22;;;;;;;24.08;10.98;;;;;;;;;;5102682;28;20032;-69
2024/03/03 06:13:47;;;;;;;26.53;11.37;;;;;;;;;;5093831;28;20352;-72
2024/03/03 06:16:12;;;;;;;23.90;10.63;;;;;;;;;;5096709;28;20260;-62
2024/03/03 06:18:38;;;;;;;20.35;10.80;;;;;;;;;;5093055;28;20043;-74
2024/03/03 06:21:03;;;;;;;18.90;10.70;;;;;;;;;;5092227;28;20024;-72
2024/03/03 06:23:28;;;;;;;17.52;11.15;;;;;;;;;;5093751;28;20249;-67
2024/03/03 06:25:54;;;;;;;19.08;10.82;;;;;;;;;;5101550;28;20015;-73
2024/03/03 06:28:19;;;;;;;20.13;10.47;;;;;;;;;;5097859;28;20296;-73
2024/03/03 06:30:45;;;;;;;15.23;9.75;;;;;;;;;;5093063;28;20241;-72
2024/03/03 06:33:10;;;;;;;17.88;10.85;;;;;;;;;;5093532;28;20021;-73
2024/03/03 06:35:36;;;;;;;18.65;10.10;;;;;;;;;;5093205;28;20032;-72
2024/03/03 06:38:01;;;;;;;23.20;10.27;;;;;;;;;;5093060;28;20016;-72
2024/03/03 06:40:26;;;;;;;23.95;10.70;;;;;;;;;;5098900;28;20342;-72
2024/03/03 06:42:52;;;;;;;17.30;9.90;;;;;;;;;;5113070;28;20025;-73
2024/03/03 06:45:17;;;;;;;17.23;10.27;;;;;;;;;;5110257;28;20256;-72
2024/03/03 06:47:42;;;;;;;18.07;9.50;;;;;;;;;;5098319;28;20260;-72
2024/03/03 06:50:08;;;;;;;21.87;9.50;;;;;;;;;;5113090;28;20633;-72
2024/03/03 06:52:33;;;;;;;16.48;9.75;;;;;;;;;;5113104;28;20275;-72
2024/03/03 06:54:59;;;;;;;14.27;9.32;;;;;;;;;;5108493;28;20351;-71
2024/03/03 06:57:26;;;;;;;16.98;10.02;;;;;;;;;;5092107;28;20051;-70
2024/03/03 06:59:52;;;;;;;19.92;9.82;;;;;;;;;;5092900;28;20031;-70
2024/03/03 07:02:18;;;;;;;18.13;9.40;;;;;;;;;;5092674;28;20024;-71
2024/03/03 07:04:43;;;;;;;14.98;8.90;;;;;;;;;;5093109;28;20020;-72
2024/03/03 07:07:09;;;;;;;18.23;8.83;;;;;;;;;;5109565;28;20335;-69
2024/03/03 07:09:36;;;;;;;16.17;8.32;;;;;;;;;;5109217;28;20321;-72
2024/03/03 07:12:02;;;;;;;16.08;9.02;;;;;;;;;;5099131;28;20028;-68
2024/03/03 07:14:28;;;;;;;15.85;8.60;;;;;;;;;;5113293;28;20045;-72
2024/03/03 07:16:54;;;;;;;14.73;8.63;;;;;;;;;;5112773;28;20107;-73
2024/03/03 07:19:19;;;;;;;15.68;9.05;;;;;;;;;;5112261;28;20103;-71
2024/03/03 07:21:45;;;;;;;13.93;8.90;;;;;;;;;;5113108;28;20422;-72
2024/03/03 07:24:10;;;;;;;13.63;8.10;;;;;;;;;;5110824;28;20255;-72
2024/03/03 07:26:36;;;;;;;13.88;8.27;;;;;;;;;;5092133;28;20249;-71
2024/03/03 07:29:03;;;;;;;16.52;9.05;;;;;;;;;;5091411;28;20039;-63
2024/03/03 07:31:28;;;;;;;13.73;8.50;;;;;;;;;;5092843;28;20050;-71
2024/03/03 07:33:53;;;;;;;14.70;8.40;;;;;;;;;;5092463;28;20342;-71
2024/03/03 07:36:19;;;;;;;12.23;8.38;;;;;;;;;;5091905;28;20012;-71
2024/03/03 07:38:44;;;;;;;16.37;7.70;;;;;;;;;;5093195;28;20015;-72
2024/03/03 07:41:09;;;;;;;15.43;8.87;;;;;;;;;;5111892;28;20031;-67
2024/03/03 07:43:35;;;;;;;15.25;8.93;;;;;;;;;;5111846;28;20019;-69
2024/03/03 07:46:00;;;;;;;12.75;8.63;;;;;;;;;;5095881;28;20035;-71
2024/03/03 07:48:26;;;;;;;16.90;8.52;;;;;;;;;;5092315;28;20064;-71
2024/03/03 07:50:51;;;;;;;17.58;9.18;;;;;;;;;;5092614;28;20038;-72
2024/03/03 07:53:17;;;;;;;14.77;8.87;;;;;;;;;;5093082;28;20056;-70
2024/03/03 07:55:42;;;;;;;16.67;9.27;;;;;;;;;;5108938;28;20308;-71
2024/03/03 07:58:07;;;;;;;17.17;9.45;;;;;;;;;;5112572;28;20418;-71
2024/03/03 08:00:35;;;;;;;18.85;9.10;;;;;;;;;;5112940;28;20023;-70
2024/03/03 08:03:01;;;;;;;17.77;10.15;;;;;;;;;;5112967;28;20020;-71
2024/03/03 08:05:27;;;;;;;22.13;10.80;;;;;;;;;;5098459;28;20442;-71
2024/03/03 08:07:53;;;;;;;17.75;10.45;;;;;;;;;;5092772;28;20024;-71
2024/03/03 08:10:18;;;;;;;22.20;11.00;;;;;;;;;;5108659;28;20080;-71
2024/03/03 08:12:43;;;;;;;17.27;10.57;;;;;;;;;;5112341;28;20061;-70
2024/03/03 08:15:09;;;;;;;16.88;9.88;;;;;;;;;;5110300;28;20284;-71
2024/03/03 08:17:34;;;;;;;19.10;10.48;;;;;;;;;;5096480;28;20374;-71
2024/03/03 08:19:59;;;;;;;18.83;11.02;;;;;;;;;;5112458;28;20019;-66
2024/03/03 08:22:24;;;;;;;22.23;10.93;;;;;;;;;;5096078;28;20063;-71
2024/03/03 08:24:50;;;;;;;25.58;11.02;;;;;;;;;;5106874;28;20450;-68
2024/03/03 08:27:15;;;;;;;27.90;11.07;;;;;;;;;;5111974;28;20023;-69
2024/03/03 08:29:40;;;;;;;24.67;11.23;;;;;;;;;;5112570;28;20024;-71
2024/03/03 08:32:06;;;;;;;23.30;11.33;;;;;;;;;;5112072;28;20240;-63
2024/03/03 08:34:31;;;;;;;24.77;11.50;;;;;;;;;;5111014;28;20295;-70
2024/03/03 08:36:56;;;;;;;22.10;10.77;;;;;;;;;;5110528;28;20027;-70
2024/03/03 08:39:22;;;;;;;22.38;11.15;;;;;;;;;;5111252;28;20066;-70
2024/03/03 08:41:47;;;;;;;23.98;11.27;;;;;;;;;;5114608;28;20111;-64
2024/03/03 08:44:12;;;;;;;21.95;11.18;;;;;;;;;;5104180;28;20127;-71
2024/03/03 08:46:38;;;;;;;27.23;11.38;;;;;;;;;;5095293;28;20092;-67
2024/03/03 08:49:03;;;;;;;16.88;10.60;;;;;;;;;;5095498;28;20035;-70
2024/03/03 08:51:28;;;;;;;18.73;10.45;;;;;;;;;;5104490;28;20040;-70
2024/03/03 08:53:54;;;;;;;20.20;11.02;;;;;;;;;;5114098;28;20414;-70
2024/03/03 08:56:19;;;;;;;24.25;10.98;;;;;;;;;;5115489;28;20032;-69
2024/03/03 08:58:44;;;;;;;20.48;11.00;;;;;;;;;;5115152;28;20426;-69
2024/03/03 09:01:14;;;;;;;23.00;11.32;;;;;;;;;;5115384;28;20027;-70
2024/03/03 09:03:42;;;;;;;23.17;10.80;;;;;;;;;;5108715;28;20351;-70
2024/03/03 09:06:07;;;;;;;26.50;11.15;;;;;;;;;;5093526;28;20335;-66
2024/03/03 09:08:32;;;;;;;21.52;11.23;;;;;;;;;;5094825;28;20027;-69
2024/03/03 09:11:01;;;;;;;21.85;11.00;;;;;;;;;;5094902;28;20062;-68
2024/03/03 09:13:29;;;;;;;20.15;11.07;;;;;;;;;;5093622;28;20381;-69
2024/03/03 09:15:55;;;;;;;24.10;10.95;;;;;;;;;;5093723;28;20032;-71
2024/03/03 09:18:20;;;;;;;19.27;10.65;;;;;;;;;;5095097;28;20030;-67
2024/03/03 09:20:45;;;;;;;23.35;11.43;;;;;;;;;;5111897;28;20019;-71
2024/03/03 09:23:11;;;;;;;18.80;10.40;;;;;;;;;;5111479;28;20026;-69
2024/03/03 09:25:36;;;;;;;23.30;10.13;;;;;;;;;;5094236;28;20063;-71
2024/03/03 09:28:01;;;;;;;19.40;10.23;;;;;;;;;;5094637;28;20310;-70
2024/03/03 09:30:27;;;;;;;21.02;10.82;;;;;;;;;;5091675;28;20048;-71
2024/03/03 09:32:53;;;;;;;16.88;10.95;;;;;;;;;;5094357;28;20062;-70
2024/03/03 09:35:19;;;;;;;21.80;10.25;;;;;;;;;;5098004;28;20044;-70
2024/03/03 09:37:45;;;;;;;20.17;10.98;;;;;;;;;;5094828;28;20174;-70
2024/03/03 09:40:13;;;;;;;19.30;11.10;;;;;;;;;;5092800;28;20031;-71
2024/03/03 09:42:40;;;;;;;19.85;10.07;;;;;;;;;;5095156;28;20031;-72
2024/03/03 09:45:07;;;;;;;25.40;10.50;;;;;;;;;;5111887;28;20052;-71
2024/03/03 09:47:34;;;;;;;21.08;9.82;;;;;;;;;;5114228;28;20028;-72
2024/03/03 09:49:59;;;;;;;20.92;10.55;;;;;;;;;;5097364;28;20024;-70
2024/03/03 09:52:27;;;;;;;19.13;10.50;;;;;;;;;;5093178;28;20470;-71
2024/03/03 09:54:52;;;;;;;20.27;9.95;;;;;;;;;;5094224;28;20501;-71
2024/03/03 09:57:18;;;;;;;16.67;10.20;;;;;;;;;;5095315;28;20032;-69
2024/03/03 09:59:45;;;;;;;19.33;10.85;;;;;;;;;;5106581;28;20023;-70
2024/03/03 10:02:17;;;;;;;18.92;10.40;;;;;;;;;;5097283;28;20389;-64
2024/03/03 10:04:46;;;;;;;22.23;10.57;;;;;;;;;;5094118;28;20028;-70
2024/03/03 10:07:22;;;;;;;20.83;10.32;;;;;;;;;;5110607;28;20039;-69
2024/03/03 10:09:50;;;;;;;20.73;10.13;;;;;;;;;;5113743;28;20019;-71
2024/03/03 10:12:15;;;;;;;23.08;10.82;;;;;;;;;;5112849;28;20139;-70
2024/03/03 10:14:41;;;;;;;23.98;10.95;;;;;;;;;;5097849;28;20347;-67
2024/03/03 10:17:07;;;;;;;18.90;10.05;;;;;;;;;;5094155;28;20024;-71
2024/03/03 10:19:32;;;;;;;22.80;10.00;;;;;;;;;;5111924;28;20036;-70
2024/03/03 10:21:58;;;;;;;22.35;9.65;;;;;;;;;;5113502;28;20031;-70
2024/03/03 10:24:23;;;;;;;19.38;8.48;;;;;;;;;;5113821;28;20027;-70
2024/03/03 10:26:49;;;;;;;15.85;8.50;;;;;;;;;;5097681;28;20438;-71
2024/03/03 10:29:21;;;;;;;19.50;8.90;;;;;;;;;;5092842;28;20339;-69
2024/03/03 10:31:47;;;;;;;12.70;8.70;;;;;;;;;;5092912;28;20024;-71
2024/03/03 10:34:14;;;;;;;15.68;8.75;;;;;;;;;;5104922;28;20046;-62
2024/03/03 10:36:40;;;;;;;15.90;8.70;;;;;;;;;;5113592;28;20453;-70
2024/03/03 10:39:08;;;;;;;16.65;8.60;;;;;;;;;;5112961;28;20024;-70
2024/03/03 10:41:33;;;;;;;17.33;8.45;;;;;;;;;;5097564;28;20061;-70
2024/03/03 10:44:01;;;;;;;14.07;9.15;;;;;;;;;;5093165;28;20074;-70
2024/03/03 10:46:26;;;;;;;19.45;9.05;;;;;;;;;;5092679;28;20366;-71
2024/03/03 10:48:54;;;;;;;14.70;7.95;;;;;;;;;;5104235;28;20027;-70
2024/03/03 10:51:20;;;;;;;15.15;8.43;;;;;;;;;;5113137;28;20052;-69
2024/03/03 10:53:52;;;;;;;14.55;7.97;;;;;;;;;;5112937;28;20453;-68
2024/03/03 10:56:21;;;;;;;15.43;7.43;;;;;;;;;;5112503;28;20044;-69
2024/03/03 10:58:47;;;;;;;15.40;7.03;;;;;;;;;;5113231;28;20180;-72
2024/03/03 11:01:14;;;;;;;11.45;6.70;;;;;;;;;;5113209;28;20034;-70
2024/03/03 11:03:42;;;;;;;11.30;6.57;;;;;;;;;;5099049;28;20099;-69
2024/03/03 11:06:07;;;;;;;12.00;6.93;;;;;;;;;;5092946;28;20111;-71
2024/03/03 11:08:33;;;;;;;10.55;6.28;;;;;;;;;;5092432;28;20095;-71
2024/03/03 11:11:03;;;;;;;10.70;6.30;;;;;;;;;;5092174;28;20026;-71
2024/03/03 11:13:31;;;;;;;18.60;6.72;;;;;;;;;;5101108;28;20461;-71
2024/03/03 11:16:01;;;;;;;10.60;6.10;;;;;;;;;;5112757;28;20039;-70
2024/03/03 11:18:27;;;;;;;9.52;5.75;;;;;;;;;;5097641;28;20020;-69
2024/03/03 11:20:56;;;;;;;9.85;5.82;;;;;;;;;;5092784;28;20035;-70
2024/03/03 11:23:36;;;;;;;11.98;6.68;;;;;;;;;;5093703;28;20031;-69
2024/03/03 11:26:10;;;;;;;9.85;5.82;;;;;;;;;;5111608;28;20103;-70
2024/03/03 11:28:37;;;;;;;11.97;6.10;;;;;;;;;;5112484;28;20032;-68
2024/03/03 11:31:02;;;;;;;12.25;6.80;;;;;;;;;;5112770;28;20341;-67
2024/03/03 11:33:28;;;;;;;12.45;6.63;;;;;;;;;;5111120;28;20106;-70
2024/03/03 11:35:54;;;;;;;9.30;6.25;;;;;;;;;;5110840;28;20107;-66
2024/03/03 11:38:20;;;;;;;12.77;5.80;;;;;;;;;;5091568;28;20348;-67
2024/03/03 11:40:45;;;;;;;10.95;6.50;;;;;;;;;;5092500;28;20016;-66
2024/03/03 11:43:11;;;;;;;10.82;5.78;;;;;;;;;;5092979;28;20016;-68
2024/03/03 11:45:48;;;;;;;11.68;6.35;;;;;;;;;;5092908;28;20028;-67
2024/03/03 11:48:13;;;;;;;10.65;6.03;;;;;;;;;;5089015;28;20038;-67
2024/03/03 11:50:39;;;;;;;11.63;6.13;;;;;;;;;;5092490;28;20095;-67
2024/03/03 11:53:05;;;;;;;10.68;5.70;;;;;;;;;;5092222;28;20059;-68
2024/03/03 11:55:32;;;;;;;11.55;5.47;;;;;;;;;;5092706;28;20470;-67
2024/03/03 11:58:01;;;;;;;10.35;5.28;;;;;;;;;;5091667;28;20431;-66
2024/03/03 12:00:28;;;;;;;8.68;5.35;;;;;;;;;;5097469;28;20028;-67
2024/03/03 12:02:54;;;;;;;10.55;5.13;;;;;;;;;;5112506;28;20030;-67
2024/03/03 12:05:19;;;;;;;9.73;5.78;;;;;;;;;;5110148;28;20381;-66
2024/03/03 12:07:48;;;;;;;13.10;5.80;;;;;;;;;;5094614;28;20020;-66
2024/03/03 12:10:16;;;;;;;10.18;5.65;;;;;;;;;;5091624;28;20031;-67
2024/03/03 12:13:12;;;;;;;8.30;4.78;;;;;;;;;;5092418;28;20123;-67
2024/03/03 12:15:37;;;;;;;8.60;5.10;;;;;;;;;;5075246;28;20051;-70
2024/03/03 12:18:04;;;;;;;10.45;5.38;;;;;;;;;;5094934;28;20020;-67
2024/03/03 12:20:29;;;;;;;11.38;5.25;;;;;;;;;;5095257;28;20027;-64
2024/03/03 12:22:55;;;;;;;8.43;5.10;;;;;;;;;;5095117;28;20020;-63
2024/03/03 12:25:21;;;;;;;9.55;5.10;;;;;;;;;;5094923;28;20411;-65
2024/03/03 12:27:53;;;;;;;9.40;4.43;;;;;;;;;;5096967;28;20389;-65
2024/03/03 12:30:39;;;;;;;10.88;5.20;;;;;;;;;;5095394;28;20023;-62
2024/03/03 12:33:05;;;;;;;8.85;4.57;;;;;;;;;;5093434;28;20423;-65
2024/03/03 12:35:31;;;;;;;10.35;5.43;;;;;;;;;;5094561;28;20110;-64
2024/03/03 12:37:57;;;;;;;11.07;5.13;;;;;;;;;;5093769;28;20045;-64
2024/03/03 12:40:23;;;;;;;9.30;4.28;;;;;;;;;;5094907;28;20031;-63
2024/03/03 12:42:49;;;;;;;12.55;4.97;;;;;;;;;;5094973;28;20016;-66
2024/03/03 12:45:15;;;;;;;10.05;4.70;;;;;;;;;;5095685;28;20140;-63
2024/03/03 12:47:41;;;;;;;8.63;4.85;;;;;;;;;;5087448;28;20031;-65
2024/03/03 12:50:11;;;;;;;11.30;5.43;;;;;;;;;;5090141;28;20438;-64
2024/03/03 12:52:37;;;;;;;11.57;5.40;;;;;;;;;;5071067;28;20432;-65
2024/03/03 12:55:02;;;;;;;12.18;5.13;;;;;;;;;;5091406;28;20059;-66
2024/03/03 12:57:28;;;;;;;8.23;5.00;;;;;;;;;;5086558;28;20016;-66
2024/03/03 12:59:55;;;;;;;11.52;5.20;;;;;;;;;;5095761;28;20453;-63
2024/03/03 13:02:20;;;;;;;12.68;5.25;;;;;;;;;;5092201;28;20035;-63
2024/03/03 13:04:45;;;;;;;9.30;5.10;;;;;;;;;;5093848;28;20024;-66
2024/03/03 13:07:11;;;;;;;10.25;5.05;;;;;;;;;;5093517;28;20430;-66
2024/03/03 13:09:37;;;;;;;15.55;5.47;;;;;;;;;;5094081;28;20024;-65
2024/03/03 13:12:05;;;;;;;8.55;5.88;;;;;;;;;;5093609;28;20035;-66
2024/03/03 13:14:34;;;;;;;13.10;5.38;;;;;;;;;;5092452;28;20048;-64
2024/03/03 13:17:06;;;;;;;7.63;4.57;;;;;;;;;;5093681;28;20039;-64
2024/03/03 13:19:48;;;;;;;8.73;5.13;;;;;;;;;;5093547;28;20020;-65
2024/03/03 13:22:17;;;;;;;11.27;5.75;;;;;;;;;;5093594;28;20012;-69
2024/03/03 13:24:55;;;;;;;14.70;6.32;;;;;;;;;;5085916;28;20024;-65
2024/03/03 13:27:22;;;;;;;12.20;5.97;;;;;;;;;;5088545;28;20032;-64
2024/03/03 13:29:48;;;;;;;15.40;7.72;;;;;;;;;;5092364;28;20076;-63
2024/03/03 13:32:13;;;;;;;10.88;6.32;;;;;;;;;;5088462;28;20099;-63
2024/03/03 13:34:42;;;;;;;15.85;6.70;;;;;;;;;;5094912;28;20039;-64
2024/03/03 13:37:10;;;;;;;11.63;5.55;;;;;;;;;;5098528;28;20419;-65
2024/03/03 13:39:36;;;;;;;11.88;5.25;;;;;;;;;;5103613;28;20031;-63
2024/03/03 13:42:01;;;;;;;12.00;5.70;;;;;;;;;;5099852;28;20336;-62
2024/03/03 13:44:27;;;;;;;13.48;5.40;;;;;;;;;;5097550;28;20410;-64
2024/03/03 13:46:52;;;;;;;18.38;5.82;;;;;;;;;;5097610;28;20019;-64
2024/03/03 13:49:17;;;;;;;12.40;5.03;;;;;;;;;;5082702;28;20032;-64
2024/03/03 13:51:43;;;;;;;11.18;5.40;;;;;;;;;;5085777;28;20131;-64
2024/03/03 13:54:13;;;;;;;13.02;6.00;;;;;;;;;;5084192;28;20046;-63
2024/03/03 13:56:41;;;;;;;11.70;5.28;;;;;;;;;;5088560;28;20032;-63
2024/03/03 13:59:08;;;;;;;11.50;5.63;;;;;;;;;;5083618;28;20016;-65
2024/03/03 14:01:33;;;;;;;14.20;6.15;;;;;;;;;;5090437;28;20025;-62
2024/03/03 14:03:58;;;;;;;10.32;4.93;;;;;;;;;;5086890;28;20127;-62
2024/03/03 14:06:24;;;;;;;10.05;5.07;;;;;;;;;;5090748;28;20047;-63
2024/03/03 14:08:50;;;;;;;9.35;5.47;;;;;;;;;;5100537;28;20107;-63
2024/03/03 14:11:15;;;;;;;15.05;5.00;;;;;;;;;;5093049;28;20024;-66
2024/03/03 14:13:40;;;;;;;11.48;5.35;;;;;;;;;;5093549;28;20024;-66
2024/03/03 14:16:06;;;;;;;12.27;6.18;;;;;;;;;;5090334;28;20039;-67
2024/03/03 14:18:32;;;;;;;10.10;5.30;;;;;;;;;;5091847;28;20020;-66